createdAt,value
2018-09-22T00:01:00.266Z,14.00
2018-09-22T00:03:28.765Z,14.00
2018-09-22T00:05:57.280Z,13.90
2018-09-22T00:08:25.761Z,13.90
2018-09-22T00:10:54.268Z,13.80
2018-09-22T00:13:22.804Z,13.70
2018-09-22T00:15:51.243Z,13.70
2018-09-22T00:18:19.708Z,13.70
2018-09-22T00:20:48.108Z,13.60
2018-09-22T00:23:16.491Z,13.60
2018-09-22T00:25:44.904Z,13.60
2018-09-22T00:28:13.302Z,13.60
2018-09-22T00:30:41.726Z,13.60
2018-09-22T00:33:10.749Z,13.60
2018-09-22T00:35:39.207Z,13.60
2018-09-22T00:38:07.780Z,13.60
2018-09-22T00:40:36.261Z,13.70
2018-09-22T00:43:04.675Z,13.60
2018-09-22T00:45:33.139Z,13.60
2018-09-22T00:48:01.646Z,13.50
2018-09-22T00:50:30.097Z,13.40
2018-09-22T00:52:58.468Z,13.30
2018-09-22T00:55:26.908Z,13.30
2018-09-22T00:57:55.513Z,13.20
2018-09-22T01:00:23.947Z,13.30
2018-09-22T01:02:52.444Z,13.20
2018-09-22T01:05:20.842Z,13.10
2018-09-22T01:07:49.457Z,13.10
2018-09-22T01:10:17.892Z,13.10
2018-09-22T01:12:46.406Z,13.10
2018-09-22T01:15:14.860Z,13.10
2018-09-22T01:17:43.272Z,13.00
2018-09-22T01:20:11.708Z,13.00
2018-09-22T01:22:40.100Z,13.00
2018-09-22T01:25:08.548Z,12.80
2018-09-22T01:27:37.030Z,12.80
2018-09-22T01:30:05.568Z,12.70
2018-09-22T01:32:33.936Z,12.60
2018-09-22T01:35:02.425Z,12.60
2018-09-22T01:37:30.807Z,12.60
2018-09-22T01:39:59.250Z,12.50
2018-09-22T01:42:27.707Z,12.50
2018-09-22T01:44:56.120Z,12.50
2018-09-22T01:47:24.605Z,12.60
2018-09-22T01:49:53.108Z,12.60
2018-09-22T01:52:21.763Z,12.70
2018-09-22T01:54:50.239Z,12.80
2018-09-22T01:57:18.644Z,12.90
2018-09-22T01:59:47.097Z,13.00
2018-09-22T02:02:15.508Z,13.00
2018-09-22T02:04:43.876Z,13.00
2018-09-22T02:07:12.447Z,13.00
2018-09-22T02:09:40.825Z,13.00
2018-09-22T02:12:09.374Z,13.00
2018-09-22T02:14:37.747Z,13.00
2018-09-22T02:17:06.193Z,13.10
2018-09-22T02:19:34.585Z,13.10
2018-09-22T02:22:02.990Z,13.20
2018-09-22T02:24:31.422Z,13.20
2018-09-22T02:26:59.820Z,13.20
2018-09-22T02:29:28.304Z,13.30
2018-09-22T02:31:56.788Z,13.30
2018-09-22T02:34:25.289Z,13.30
2018-09-22T02:36:54.001Z,13.30
2018-09-22T02:39:22.467Z,13.40
2018-09-22T02:41:50.860Z,13.40
2018-09-22T02:44:19.256Z,13.40
2018-09-22T02:46:47.694Z,13.40
2018-09-22T02:49:16.124Z,13.40
2018-09-22T02:51:44.542Z,13.40
2018-09-22T02:54:13.087Z,13.50
2018-09-22T02:56:41.499Z,13.40
2018-09-22T02:59:09.866Z,13.40
2018-09-22T03:01:38.272Z,13.40
2018-09-22T03:04:06.770Z,13.50
2018-09-22T03:06:35.225Z,13.40
2018-09-22T03:09:06.108Z,13.50
2018-09-22T03:11:35.042Z,13.50
2018-09-22T03:14:09.840Z,13.50
2018-09-22T03:16:38.296Z,13.50
2018-09-22T03:19:06.872Z,13.50
2018-09-22T03:21:35.342Z,13.40
2018-09-22T03:24:03.831Z,13.40
2018-09-22T03:26:32.274Z,13.40
2018-09-22T03:29:00.703Z,13.40
2018-09-22T03:31:29.272Z,13.40
2018-09-22T03:33:57.779Z,13.30
2018-09-22T03:36:26.220Z,13.20
2018-09-22T03:38:54.676Z,13.20
2018-09-22T03:41:23.161Z,13.20
2018-09-22T03:43:51.621Z,13.20
2018-09-22T03:46:20.039Z,13.00
2018-09-22T03:48:48.500Z,13.00
2018-09-22T03:51:16.919Z,12.90
2018-09-22T03:53:45.283Z,12.80
2018-09-22T03:56:13.867Z,12.80
2018-09-22T03:58:42.272Z,12.70
2018-09-22T04:01:10.796Z,12.70
2018-09-22T04:03:39.176Z,12.70
2018-09-22T04:06:07.619Z,12.70
2018-09-22T04:08:36.113Z,12.70
2018-09-22T04:11:04.517Z,12.50
2018-09-22T04:13:32.909Z,12.50
2018-09-22T04:16:01.380Z,12.30
2018-09-22T04:18:29.997Z,12.40
2018-09-22T04:20:58.438Z,12.30
2018-09-22T04:23:27.003Z,12.20
2018-09-22T04:25:55.606Z,12.20
2018-09-22T04:28:24.037Z,12.10
2018-09-22T04:30:52.467Z,12.20
2018-09-22T04:33:20.959Z,12.20
2018-09-22T04:35:49.380Z,12.20
2018-09-22T04:38:17.804Z,12.20
2018-09-22T04:40:46.218Z,12.30
2018-09-22T04:43:14.705Z,12.20
2018-09-22T04:45:43.081Z,12.10
2018-09-22T04:48:11.521Z,12.10
2018-09-22T04:50:39.977Z,12.10
2018-09-22T04:53:08.385Z,12.10
2018-09-22T04:55:36.900Z,12.10
2018-09-22T04:58:05.448Z,12.10
2018-09-22T05:00:33.840Z,12.00
2018-09-22T05:03:02.386Z,12.10
2018-09-22T05:05:30.844Z,12.10
2018-09-22T05:07:59.397Z,12.00
2018-09-22T05:10:27.921Z,12.10
2018-09-22T05:12:56.734Z,12.00
2018-09-22T05:15:25.323Z,11.90
2018-09-22T05:17:53.881Z,11.80
2018-09-22T05:20:22.402Z,11.80
2018-09-22T05:22:51.441Z,11.70
2018-09-22T05:25:19.886Z,11.70
2018-09-22T05:27:48.284Z,11.70
2018-09-22T05:30:16.658Z,11.70
2018-09-22T05:32:45.100Z,11.70
2018-09-22T05:35:13.485Z,11.60
2018-09-22T05:37:41.913Z,11.60
2018-09-22T05:40:10.460Z,11.70
2018-09-22T05:42:39.005Z,11.70
2018-09-22T05:45:07.693Z,11.70
2018-09-22T05:47:36.104Z,11.70
2018-09-22T05:50:04.992Z,11.70
2018-09-22T05:52:33.409Z,11.70
2018-09-22T05:55:01.839Z,11.70
2018-09-22T05:57:30.454Z,11.80
2018-09-22T05:59:59.008Z,11.80
2018-09-22T06:02:27.480Z,11.70
2018-09-22T06:04:56.040Z,11.80
2018-09-22T06:07:24.595Z,11.80
2018-09-22T06:09:53.232Z,11.90
2018-09-22T06:12:21.758Z,11.90
2018-09-22T06:14:50.148Z,12.00
2018-09-22T06:17:18.586Z,12.10
2018-09-22T06:19:47.035Z,12.20
2018-09-22T06:22:15.538Z,12.30
2018-09-22T06:24:44.209Z,12.40
2018-09-22T06:27:12.616Z,12.40
2018-09-22T06:29:41.112Z,12.50
2018-09-22T06:32:09.485Z,12.70
2018-09-22T06:34:38.041Z,12.80
2018-09-22T06:37:06.452Z,12.90
2018-09-22T06:39:57.130Z,13.00
2018-09-22T06:42:25.640Z,13.10
2018-09-22T06:44:54.076Z,13.20
2018-09-22T06:47:22.779Z,13.30
2018-09-22T06:49:51.261Z,13.40
2018-09-22T06:52:19.664Z,13.50
2018-09-22T06:54:48.150Z,13.40
2018-09-22T06:57:16.688Z,13.50
2018-09-22T06:59:45.284Z,13.50
2018-09-22T07:02:13.649Z,13.60
2018-09-22T07:04:42.204Z,13.60
2018-09-22T07:07:11.110Z,13.70
2018-09-22T07:09:43.648Z,13.70
2018-09-22T07:12:12.216Z,13.70
2018-09-22T07:14:40.651Z,13.80
2018-09-22T07:17:09.196Z,13.80
2018-09-22T07:19:37.664Z,13.80
2018-09-22T07:22:11.575Z,13.90
2018-09-22T07:24:40.213Z,13.90
2018-09-22T07:27:08.708Z,14.00
2018-09-22T07:29:37.129Z,14.10
2018-09-22T07:32:05.513Z,14.10
2018-09-22T07:34:33.896Z,14.10
2018-09-22T07:37:02.382Z,14.20
2018-09-22T07:39:31.095Z,14.20
2018-09-22T07:41:59.663Z,14.20
2018-09-22T07:44:28.171Z,14.20
2018-09-22T07:46:56.648Z,14.20
2018-09-22T07:49:25.256Z,14.30
2018-09-22T07:51:53.824Z,14.40
2018-09-22T07:54:22.345Z,14.50
2018-09-22T07:56:50.744Z,14.70
2018-09-22T07:59:19.268Z,14.90
2018-09-22T08:01:47.626Z,15.00
2018-09-22T08:04:16.033Z,15.00
2018-09-22T08:06:44.556Z,15.10
2018-09-22T08:09:12.996Z,15.20
2018-09-22T08:11:41.413Z,15.30
2018-09-22T08:14:09.872Z,15.60
2018-09-22T08:16:38.324Z,15.70
2018-09-22T08:19:06.751Z,15.60
2018-09-22T08:21:35.392Z,15.60
2018-09-22T08:24:04.043Z,15.60
2018-09-22T08:26:32.516Z,15.80
2018-09-22T08:29:00.927Z,15.80
2018-09-22T08:31:29.376Z,15.90
2018-09-22T08:33:58.004Z,15.90
2018-09-22T08:36:26.861Z,15.80
2018-09-22T08:38:55.679Z,15.90
2018-09-22T08:41:24.395Z,15.80
2018-09-22T08:43:53.945Z,15.90
2018-09-22T08:46:22.505Z,15.80
2018-09-22T08:48:51.604Z,16.00
2018-09-22T08:51:20.133Z,16.10
2018-09-22T08:53:48.672Z,16.40
2018-09-22T08:56:17.053Z,16.60
2018-09-22T08:58:45.418Z,16.70
2018-09-22T09:01:13.909Z,16.80
2018-09-22T09:03:42.378Z,16.80
2018-09-22T09:06:10.804Z,16.70
2018-09-22T09:08:39.353Z,16.60
2018-09-22T09:11:07.788Z,16.40
2018-09-22T09:13:36.177Z,16.40
2018-09-22T09:16:04.629Z,16.40
2018-09-22T09:18:33.059Z,16.50
2018-09-22T09:21:01.569Z,16.50
2018-09-22T09:23:29.987Z,16.50
2018-09-22T09:25:58.475Z,16.50
2018-09-22T09:28:26.922Z,16.40
2018-09-22T09:30:55.402Z,16.50
2018-09-22T09:33:24.161Z,16.70
2018-09-22T09:35:52.596Z,16.90
2018-09-22T09:38:21.117Z,16.90
2018-09-22T09:40:49.541Z,16.90
2018-09-22T09:43:18.021Z,16.70
2018-09-22T09:45:46.352Z,16.70
2018-09-22T09:48:14.789Z,16.70
2018-09-22T09:50:43.260Z,16.70
2018-09-22T09:53:11.731Z,16.90
2018-09-22T09:55:40.367Z,17.10
2018-09-22T09:58:08.799Z,17.20
2018-09-22T10:00:42.631Z,17.40
2018-09-22T10:03:11.207Z,17.50
2018-09-22T10:05:50.727Z,17.60
2018-09-22T10:08:19.269Z,17.60
2018-09-22T10:10:47.696Z,17.60
2018-09-22T10:13:16.074Z,17.60
2018-09-22T10:15:44.476Z,17.80
2018-09-22T10:18:12.896Z,17.90
2018-09-22T10:20:41.412Z,18.20
2018-09-22T10:23:09.788Z,18.40
2018-09-22T10:25:38.180Z,18.50
2018-09-22T10:28:06.738Z,18.50
2018-09-22T10:30:35.117Z,18.40
2018-09-22T10:33:03.510Z,18.40
2018-09-22T10:35:31.898Z,18.50
2018-09-22T10:38:00.296Z,18.50
2018-09-22T10:40:28.711Z,18.70
2018-09-22T10:42:57.092Z,18.70
2018-09-22T10:45:25.589Z,18.70
2018-09-22T10:47:54.020Z,18.70
2018-09-22T10:50:22.545Z,18.70
2018-09-22T10:52:51.037Z,18.70
2018-09-22T10:55:19.397Z,18.70
2018-09-22T10:57:48.108Z,18.70
2018-09-22T11:00:16.826Z,18.70
2018-09-22T11:02:45.460Z,18.90
2018-09-22T11:05:13.918Z,19.10
2018-09-22T11:07:42.350Z,19.20
2018-09-22T11:10:10.763Z,19.20
2018-09-22T11:12:39.173Z,19.20
2018-09-22T11:15:07.736Z,19.20
2018-09-22T11:17:36.205Z,19.10
2018-09-22T11:20:04.641Z,19.20
2018-09-22T11:22:33.369Z,19.20
2018-09-22T11:25:01.805Z,19.30
2018-09-22T11:27:30.384Z,19.50
2018-09-22T11:29:58.804Z,19.50
2018-09-22T11:32:27.323Z,19.30
2018-09-22T11:34:55.740Z,19.20
2018-09-22T11:37:24.268Z,19.20
2018-09-22T11:39:52.933Z,19.20
2018-09-22T11:42:22.110Z,19.30
2018-09-22T11:44:50.475Z,19.40
2018-09-22T11:47:19.025Z,19.40
2018-09-22T11:49:47.372Z,19.30
2018-09-22T11:52:15.935Z,19.40
2018-09-22T11:54:44.297Z,19.40
2018-09-22T11:57:12.676Z,19.60
2018-09-22T11:59:41.083Z,19.50
2018-09-22T12:02:09.629Z,19.50
2018-09-22T12:04:38.037Z,19.60
2018-09-22T12:07:06.429Z,19.50
2018-09-22T12:09:34.832Z,19.40
2018-09-22T12:12:03.384Z,19.40
2018-09-22T12:14:31.792Z,19.40
2018-09-22T12:17:00.200Z,19.40
2018-09-22T12:19:28.725Z,19.50
2018-09-22T12:21:57.152Z,19.50
2018-09-22T12:24:25.690Z,19.50
2018-09-22T12:26:54.224Z,19.50
2018-09-22T12:29:22.720Z,19.60
2018-09-22T12:31:51.226Z,19.60
2018-09-22T12:34:19.604Z,19.60
2018-09-22T12:36:48.060Z,19.50
2018-09-22T12:39:16.431Z,19.50
2018-09-22T12:41:44.790Z,19.60
2018-09-22T12:44:13.197Z,19.80
2018-09-22T12:46:41.576Z,19.80
2018-09-22T12:49:10.108Z,19.70
2018-09-22T12:51:40.309Z,19.70
2018-09-22T12:54:08.761Z,19.70
2018-09-22T12:56:39.185Z,19.80
2018-09-22T12:59:07.700Z,19.80
2018-09-22T13:01:36.112Z,19.70
2018-09-22T13:04:04.523Z,19.80
2018-09-22T13:06:32.962Z,19.70
2018-09-22T13:09:01.357Z,19.70
2018-09-22T13:11:36.534Z,19.70
2018-09-22T13:14:05.073Z,19.60
2018-09-22T13:16:33.488Z,19.60
2018-09-22T13:19:01.864Z,19.60
2018-09-22T13:21:30.445Z,19.50
2018-09-22T13:23:58.880Z,19.50
2018-09-22T13:26:27.413Z,19.40
2018-09-22T13:28:55.823Z,19.40
2018-09-22T13:31:24.327Z,19.40
2018-09-22T13:33:52.775Z,19.30
2018-09-22T13:36:21.237Z,19.30
2018-09-22T13:38:50.593Z,19.30
2018-09-22T13:41:19.060Z,19.30
2018-09-22T13:43:47.578Z,19.30
2018-09-22T13:46:15.976Z,19.10
2018-09-22T13:48:45.036Z,19.00
2018-09-22T13:51:13.471Z,19.00
2018-09-22T13:53:41.849Z,18.90
2018-09-22T13:56:10.266Z,19.00
2018-09-22T13:58:38.700Z,19.10
2018-09-22T14:01:07.234Z,19.30
2018-09-22T14:03:35.685Z,19.30
2018-09-22T14:06:04.093Z,19.30
2018-09-22T14:08:38.937Z,19.30
2018-09-22T14:11:07.333Z,19.30
2018-09-22T14:13:35.930Z,19.40
2018-09-22T14:16:04.315Z,19.40
2018-09-22T14:18:32.793Z,19.40
2018-09-22T14:21:01.292Z,19.50
2018-09-22T14:23:29.701Z,19.50
2018-09-22T14:25:58.084Z,19.50
2018-09-22T14:28:26.506Z,19.50
2018-09-22T14:30:55.044Z,19.40
2018-09-22T14:33:23.438Z,19.20
2018-09-22T14:35:51.917Z,19.10
2018-09-22T14:38:20.358Z,19.00
2018-09-22T14:40:48.788Z,18.90
2018-09-22T14:43:17.169Z,18.90
2018-09-22T14:45:45.690Z,18.90
2018-09-22T14:48:14.093Z,18.90
2018-09-22T14:50:42.471Z,19.00
2018-09-22T14:53:10.920Z,19.00
2018-09-22T14:55:39.313Z,19.00
2018-09-22T14:58:08.603Z,19.00
2018-09-22T15:00:37.720Z,19.00
2018-09-22T15:03:06.250Z,18.90
2018-09-22T15:05:34.766Z,18.90
2018-09-22T15:08:03.638Z,18.80
2018-09-22T15:10:32.707Z,18.80
2018-09-22T15:13:02.413Z,18.70
2018-09-22T15:15:31.157Z,18.60
2018-09-22T15:18:00.397Z,18.50
2018-09-22T15:20:29.519Z,18.50
2018-09-22T15:22:58.331Z,18.50
2018-09-22T15:25:27.298Z,18.40
2018-09-22T15:27:55.744Z,18.40
2018-09-22T15:30:24.619Z,18.40
2018-09-22T15:32:53.374Z,18.30
2018-09-22T15:35:22.190Z,18.30
2018-09-22T15:37:51.582Z,18.30
2018-09-22T15:40:19.958Z,18.30
2018-09-22T15:42:48.371Z,18.20
2018-09-22T15:45:18.528Z,18.10
2018-09-22T15:47:47.012Z,18.10
2018-09-22T15:50:15.835Z,17.90
2018-09-22T15:52:44.348Z,17.90
2018-09-22T15:55:12.816Z,17.80
2018-09-22T15:57:47.163Z,17.70
2018-09-22T16:00:15.622Z,17.70
2018-09-22T16:02:44.953Z,17.70
2018-09-22T16:05:13.449Z,17.70
2018-09-22T16:07:43.366Z,17.60
2018-09-22T16:10:11.865Z,17.60
2018-09-22T16:12:40.257Z,17.60
2018-09-22T16:15:08.746Z,17.50
2018-09-22T16:17:37.105Z,17.50
2018-09-22T16:20:06.627Z,17.40
2018-09-22T16:22:39.381Z,17.50
2018-09-22T16:25:08.125Z,17.50
2018-09-22T16:27:37.401Z,17.50
2018-09-22T16:30:06.361Z,17.40
2018-09-22T16:32:34.808Z,17.40
2018-09-22T16:35:03.264Z,17.40
2018-09-22T16:37:31.761Z,17.40
2018-09-22T16:40:00.434Z,17.30
2018-09-22T16:42:28.852Z,17.30
2018-09-22T16:44:57.252Z,17.20
2018-09-22T16:47:26.004Z,17.10
2018-09-22T16:49:54.581Z,17.10
2018-09-22T16:52:23.058Z,17.00
2018-09-22T16:54:51.482Z,16.90
2018-09-22T16:57:19.868Z,16.80
2018-09-22T16:59:48.334Z,16.80
2018-09-22T17:02:16.738Z,16.80
2018-09-22T17:04:45.118Z,16.70
2018-09-22T17:07:13.560Z,16.70
2018-09-22T17:09:42.104Z,16.60
2018-09-22T17:12:10.461Z,16.50
2018-09-22T17:14:38.883Z,16.50
2018-09-22T17:17:07.703Z,16.40
2018-09-22T17:19:36.096Z,16.30
2018-09-22T17:22:04.536Z,16.30
2018-09-22T17:24:32.974Z,16.20
2018-09-22T17:27:01.500Z,16.10
2018-09-22T17:29:30.017Z,16.10
2018-09-22T17:31:58.509Z,16.10
2018-09-22T17:34:27.039Z,16.10
2018-09-22T17:36:55.636Z,16.00
2018-09-22T17:39:24.355Z,15.90
2018-09-22T17:41:52.908Z,15.80
2018-09-22T17:44:21.467Z,15.80
2018-09-22T17:46:50.061Z,15.80
2018-09-22T17:49:18.530Z,15.70
2018-09-22T17:51:46.987Z,15.60
2018-09-22T17:54:15.401Z,15.60
2018-09-22T17:56:43.869Z,15.70
2018-09-22T17:59:12.308Z,15.60
2018-09-22T18:01:40.941Z,15.60
2018-09-22T18:04:09.316Z,15.60
2018-09-22T18:06:37.736Z,15.60
2018-09-22T18:09:07.751Z,15.50
2018-09-22T18:11:36.479Z,15.60
2018-09-22T18:14:04.913Z,15.60
2018-09-22T18:16:33.549Z,15.50
2018-09-22T18:19:01.989Z,15.50
2018-09-22T18:21:30.446Z,15.40
2018-09-22T18:23:58.878Z,15.30
2018-09-22T18:26:27.243Z,15.30
2018-09-22T18:28:55.767Z,15.30
2018-09-22T18:31:24.300Z,15.30
2018-09-22T18:33:52.776Z,15.30
2018-09-22T18:36:21.458Z,15.30
2018-09-22T18:38:50.024Z,15.30
2018-09-22T18:41:18.715Z,15.30
2018-09-22T18:43:47.205Z,15.30
2018-09-22T18:46:15.733Z,15.20
2018-09-22T18:48:44.189Z,15.20
2018-09-22T18:51:12.617Z,15.10
2018-09-22T18:53:40.978Z,15.10
2018-09-22T18:56:09.397Z,15.10
2018-09-22T18:58:37.890Z,15.10
2018-09-22T19:01:06.449Z,15.10
2018-09-22T19:03:34.888Z,15.20
2018-09-22T19:06:03.440Z,15.20
2018-09-22T19:08:31.793Z,15.20
2018-09-22T19:11:00.557Z,15.10
2018-09-22T19:13:34.831Z,15.10
2018-09-22T19:16:07.537Z,15.10
2018-09-22T19:18:39.880Z,15.10
2018-09-22T19:21:12.594Z,15.00
2018-09-22T19:23:44.885Z,15.00
2018-09-22T19:26:17.430Z,15.00
2018-09-22T19:28:49.583Z,15.00
2018-09-22T19:31:22.377Z,15.00
2018-09-22T19:33:54.186Z,15.00
2018-09-22T19:36:28.595Z,15.00
2018-09-22T19:39:09.552Z,14.90
2018-09-22T19:41:45.234Z,14.90
2018-09-22T19:44:19.212Z,14.90
2018-09-22T19:46:51.569Z,14.90
2018-09-22T19:49:25.817Z,14.90
2018-09-22T19:51:58.313Z,14.90
2018-09-22T19:54:26.781Z,14.90
2018-09-22T19:56:56.255Z,14.80
2018-09-22T19:59:24.673Z,14.70
2018-09-22T20:01:53.538Z,14.70
2018-09-22T20:04:22.067Z,14.60
2018-09-22T20:06:50.497Z,14.70
2018-09-22T20:09:19.051Z,14.60
2018-09-22T20:11:47.570Z,14.60
2018-09-22T20:14:16.077Z,14.70
2018-09-22T20:16:44.726Z,14.70
2018-09-22T20:19:13.532Z,14.70
2018-09-22T20:21:41.937Z,14.70
2018-09-22T20:24:10.462Z,14.70
2018-09-22T20:26:38.917Z,14.70
2018-09-22T20:29:08.093Z,14.70
2018-09-22T20:31:36.526Z,14.60
2018-09-22T20:34:05.027Z,14.60
2018-09-22T20:36:33.479Z,14.60
2018-09-22T20:39:01.913Z,14.60
2018-09-22T20:41:30.937Z,14.50
2018-09-22T20:43:59.401Z,14.50
2018-09-22T20:46:27.861Z,14.40
2018-09-22T20:48:56.484Z,14.40
2018-09-22T20:51:25.876Z,14.30
2018-09-22T20:53:55.070Z,14.30
2018-09-22T20:56:23.687Z,14.40
2018-09-22T20:58:53.369Z,14.40
2018-09-22T21:01:24.729Z,14.40
2018-09-22T21:03:53.583Z,14.40
2018-09-22T21:06:22.118Z,14.40
2018-09-22T21:08:50.545Z,14.40
2018-09-22T21:11:19.048Z,14.40
2018-09-22T21:13:48.017Z,14.40
2018-09-22T21:16:16.934Z,14.40
2018-09-22T21:18:46.414Z,14.40
2018-09-22T21:21:14.938Z,14.40
2018-09-22T21:23:43.300Z,14.30
2018-09-22T21:26:11.905Z,14.30
2018-09-22T21:28:41.095Z,14.30
2018-09-22T21:31:10.104Z,14.30
2018-09-22T21:33:40.307Z,14.30
2018-09-22T21:36:10.040Z,14.20
2018-09-22T21:38:41.226Z,14.20
2018-09-22T21:41:10.013Z,14.20
2018-09-22T21:43:41.172Z,14.30
2018-09-22T21:46:10.970Z,14.30
2018-09-22T21:48:39.581Z,14.20
2018-09-22T21:51:08.109Z,14.20
2018-09-22T21:53:37.069Z,14.10
2018-09-22T21:56:05.458Z,14.10
2018-09-22T21:58:33.925Z,14.10
2018-09-22T22:01:02.442Z,14.10
2018-09-22T22:03:30.841Z,14.10
2018-09-22T22:05:59.416Z,14.10
2018-09-22T22:08:27.964Z,14.00
2018-09-22T22:10:56.552Z,14.00
2018-09-22T22:13:25.183Z,14.10
2018-09-22T22:15:53.920Z,14.10
2018-09-22T22:18:22.461Z,14.00
2018-09-22T22:20:51.161Z,14.00
2018-09-22T22:23:19.569Z,14.00
2018-09-22T22:25:48.048Z,13.90
2018-09-22T22:28:16.469Z,13.90
2018-09-22T22:30:45.049Z,13.90
2018-09-22T22:33:13.473Z,13.90
2018-09-22T22:35:42.013Z,13.90
2018-09-22T22:38:10.419Z,14.00
2018-09-22T22:40:38.915Z,14.10
2018-09-22T22:43:07.329Z,14.00
2018-09-22T22:45:35.756Z,14.00
2018-09-22T22:48:04.246Z,14.00
2018-09-22T22:50:32.674Z,14.00
2018-09-22T22:53:01.190Z,14.00
2018-09-22T22:55:29.641Z,13.90
2018-09-22T22:57:58.289Z,13.80
2018-09-22T23:00:26.897Z,13.80
2018-09-22T23:02:55.465Z,13.90
2018-09-22T23:05:24.041Z,13.90
2018-09-22T23:07:52.784Z,13.90
2018-09-22T23:10:21.327Z,13.90
2018-09-22T23:12:49.828Z,13.90
2018-09-22T23:15:18.415Z,13.90
2018-09-22T23:17:46.813Z,13.80
2018-09-22T23:20:15.368Z,13.90
2018-09-22T23:22:43.770Z,13.90
2018-09-22T23:25:12.244Z,13.90
2018-09-22T23:27:41.036Z,13.90
2018-09-22T23:30:09.473Z,13.80
2018-09-22T23:32:37.888Z,13.80
2018-09-22T23:35:06.405Z,13.80
2018-09-22T23:37:34.895Z,13.80
2018-09-22T23:40:03.388Z,13.80
2018-09-22T23:42:31.818Z,13.80
2018-09-22T23:45:00.337Z,13.80
2018-09-22T23:47:28.888Z,13.90
2018-09-22T23:49:57.379Z,13.80
2018-09-22T23:52:25.872Z,13.80
2018-09-22T23:54:54.447Z,13.80
2018-09-22T23:57:22.952Z,13.80
2018-09-22T23:59:51.429Z,13.80
